sensor_id;sensor_type;location;lat;lon;timestamp;P1;durP1;ratioP1;P2;durP2;ratioP2
80344;SDS011;69658;44.498;0.166;2023-09-30T00:03:24;11.40;;;2.63;;
80344;SDS011;69658;44.498;0.166;2023-09-30T00:08:57;12.77;;;3.70;;
80344;SDS011;69658;44.498;0.166;2023-09-30T00:14:32;10.77;;;3.70;;
80344;SDS011;69658;44.498;0.166;2023-09-30T00:20:05;9.87;;;3.40;;
80344;SDS011;69658;44.498;0.166;2023-09-30T00:25:40;9.93;;;3.37;;
80344;SDS011;69658;44.498;0.166;2023-09-30T00:31:10;10.50;;;3.83;;
80344;SDS011;69658;44.498;0.166;2023-09-30T00:36:42;11.07;;;3.63;;
80344;SDS011;69658;44.498;0.166;2023-09-30T00:42:14;10.90;;;3.73;;
80344;SDS011;69658;44.498;0.166;2023-09-30T00:47:48;9.00;;;3.03;;
80344;SDS011;69658;44.498;0.166;2023-09-30T00:53:20;7.00;;;2.93;;
80344;SDS011;69658;44.498;0.166;2023-09-30T00:58:52;11.53;;;3.53;;
80344;SDS011;69658;44.498;0.166;2023-09-30T01:04:24;8.63;;;3.07;;
80344;SDS011;69658;44.498;0.166;2023-09-30T01:09:57;13.77;;;2.90;;
80344;SDS011;69658;44.498;0.166;2023-09-30T01:15:32;11.27;;;2.87;;
80344;SDS011;69658;44.498;0.166;2023-09-30T01:21:04;6.80;;;2.50;;
80344;SDS011;69658;44.498;0.166;2023-09-30T01:26:38;7.60;;;2.90;;
80344;SDS011;69658;44.498;0.166;2023-09-30T01:32:10;9.03;;;2.83;;
80344;SDS011;69658;44.498;0.166;2023-09-30T01:37:43;7.40;;;2.83;;
80344;SDS011;69658;44.498;0.166;2023-09-30T01:43:14;8.60;;;2.40;;
80344;SDS011;69658;44.498;0.166;2023-09-30T01:48:46;8.90;;;3.77;;
80344;SDS011;69658;44.498;0.166;2023-09-30T01:54:19;7.60;;;2.70;;
80344;SDS011;69658;44.498;0.166;2023-09-30T01:59:52;9.20;;;2.80;;
80344;SDS011;69658;44.498;0.166;2023-09-30T02:05:25;10.43;;;2.97;;
80344;SDS011;69658;44.498;0.166;2023-09-30T02:10:58;7.07;;;3.17;;
80344;SDS011;69658;44.498;0.166;2023-09-30T02:16:30;10.47;;;2.90;;
80344;SDS011;69658;44.498;0.166;2023-09-30T02:22:02;6.33;;;2.77;;
80344;SDS011;69658;44.498;0.166;2023-09-30T02:27:34;9.30;;;2.73;;
80344;SDS011;69658;44.498;0.166;2023-09-30T02:33:07;14.30;;;4.40;;
80344;SDS011;69658;44.498;0.166;2023-09-30T02:38:41;10.70;;;4.13;;
80344;SDS011;69658;44.498;0.166;2023-09-30T02:44:14;23.87;;;5.27;;
80344;SDS011;69658;44.498;0.166;2023-09-30T02:49:46;9.50;;;3.23;;
80344;SDS011;69658;44.498;0.166;2023-09-30T02:55:19;16.07;;;4.33;;
80344;SDS011;69658;44.498;0.166;2023-09-30T03:00:54;10.77;;;3.47;;
80344;SDS011;69658;44.498;0.166;2023-09-30T03:06:26;8.03;;;2.87;;
80344;SDS011;69658;44.498;0.166;2023-09-30T03:11:59;10.83;;;3.30;;
80344;SDS011;69658;44.498;0.166;2023-09-30T03:17:32;5.90;;;2.40;;
80344;SDS011;69658;44.498;0.166;2023-09-30T03:23:05;10.90;;;3.70;;
80344;SDS011;69658;44.498;0.166;2023-09-30T03:28:38;8.93;;;2.50;;
80344;SDS011;69658;44.498;0.166;2023-09-30T03:34:10;10.73;;;3.40;;
80344;SDS011;69658;44.498;0.166;2023-09-30T03:39:42;9.27;;;3.47;;
80344;SDS011;69658;44.498;0.166;2023-09-30T03:45:14;11.73;;;3.23;;
80344;SDS011;69658;44.498;0.166;2023-09-30T03:56:19;15.80;;;3.70;;
80344;SDS011;69658;44.498;0.166;2023-09-30T04:01:53;9.27;;;2.97;;
80344;SDS011;69658;44.498;0.166;2023-09-30T04:07:28;15.90;;;4.17;;
80344;SDS011;69658;44.498;0.166;2023-09-30T04:12:57;9.50;;;3.67;;
80344;SDS011;69658;44.498;0.166;2023-09-30T04:18:31;10.47;;;2.80;;
80344;SDS011;69658;44.498;0.166;2023-09-30T04:24:05;9.83;;;3.37;;
80344;SDS011;69658;44.498;0.166;2023-09-30T04:29:35;10.30;;;2.80;;
80344;SDS011;69658;44.498;0.166;2023-09-30T04:35:09;8.33;;;3.17;;
80344;SDS011;69658;44.498;0.166;2023-09-30T04:40:41;9.83;;;3.17;;
80344;SDS011;69658;44.498;0.166;2023-09-30T04:46:13;11.07;;;2.80;;
80344;SDS011;69658;44.498;0.166;2023-09-30T04:51:49;6.40;;;2.63;;
80344;SDS011;69658;44.498;0.166;2023-09-30T04:57:22;15.50;;;3.37;;
80344;SDS011;69658;44.498;0.166;2023-09-30T05:02:55;11.13;;;2.90;;
80344;SDS011;69658;44.498;0.166;2023-09-30T05:08:26;5.13;;;2.13;;
80344;SDS011;69658;44.498;0.166;2023-09-30T05:13:58;13.27;;;3.70;;
80344;SDS011;69658;44.498;0.166;2023-09-30T05:19:31;8.50;;;2.67;;
80344;SDS011;69658;44.498;0.166;2023-09-30T05:25:02;5.83;;;2.70;;
80344;SDS011;69658;44.498;0.166;2023-09-30T05:30:36;8.40;;;2.60;;
80344;SDS011;69658;44.498;0.166;2023-09-30T05:36:09;6.80;;;2.40;;
80344;SDS011;69658;44.498;0.166;2023-09-30T05:41:43;5.27;;;1.80;;
80344;SDS011;69658;44.498;0.166;2023-09-30T05:47:15;9.37;;;3.60;;
80344;SDS011;69658;44.498;0.166;2023-09-30T05:52:48;10.23;;;2.63;;
80344;SDS011;69658;44.498;0.166;2023-09-30T05:58:20;9.80;;;2.33;;
80344;SDS011;69658;44.498;0.166;2023-09-30T06:03:54;7.77;;;2.43;;
80344;SDS011;69658;44.498;0.166;2023-09-30T06:09:29;6.87;;;2.50;;
80344;SDS011;69658;44.498;0.166;2023-09-30T06:15:01;8.27;;;2.67;;
80344;SDS011;69658;44.498;0.166;2023-09-30T06:20:31;8.60;;;2.77;;
80344;SDS011;69658;44.498;0.166;2023-09-30T06:26:03;9.90;;;2.57;;
80344;SDS011;69658;44.498;0.166;2023-09-30T06:31:37;9.47;;;2.97;;
80344;SDS011;69658;44.498;0.166;2023-09-30T06:37:08;12.90;;;3.67;;
80344;SDS011;69658;44.498;0.166;2023-09-30T06:42:43;12.30;;;4.20;;
80344;SDS011;69658;44.498;0.166;2023-09-30T06:48:15;12.60;;;4.73;;
80344;SDS011;69658;44.498;0.166;2023-09-30T06:53:47;18.90;;;3.87;;
80344;SDS011;69658;44.498;0.166;2023-09-30T06:59:21;17.43;;;4.00;;
80344;SDS011;69658;44.498;0.166;2023-09-30T07:04:54;9.10;;;3.03;;
80344;SDS011;69658;44.498;0.166;2023-09-30T07:10:26;7.90;;;2.70;;
80344;SDS011;69658;44.498;0.166;2023-09-30T07:16:00;8.03;;;3.17;;
80344;SDS011;69658;44.498;0.166;2023-09-30T07:21:33;10.87;;;3.40;;
80344;SDS011;69658;44.498;0.166;2023-09-30T07:27:05;18.10;;;4.83;;
80344;SDS011;69658;44.498;0.166;2023-09-30T07:32:38;9.43;;;3.77;;
80344;SDS011;69658;44.498;0.166;2023-09-30T07:43:44;10.60;;;3.53;;
80344;SDS011;69658;44.498;0.166;2023-09-30T07:49:18;10.07;;;3.40;;
80344;SDS011;69658;44.498;0.166;2023-09-30T07:54:50;17.73;;;5.03;;
80344;SDS011;69658;44.498;0.166;2023-09-30T08:00:24;16.70;;;5.30;;
80344;SDS011;69658;44.498;0.166;2023-09-30T08:05:58;18.93;;;6.63;;
80344;SDS011;69658;44.498;0.166;2023-09-30T08:11:33;17.63;;;5.23;;
80344;SDS011;69658;44.498;0.166;2023-09-30T08:17:06;14.93;;;4.57;;
80344;SDS011;69658;44.498;0.166;2023-09-30T08:22:39;12.87;;;4.17;;
80344;SDS011;69658;44.498;0.166;2023-09-30T08:28:12;18.75;;;5.75;;
80344;SDS011;69658;44.498;0.166;2023-09-30T08:33:46;8.15;;;3.80;;
80344;SDS011;69658;44.498;0.166;2023-09-30T08:39:18;11.80;;;5.00;;
80344;SDS011;69658;44.498;0.166;2023-09-30T08:44:50;9.60;;;4.25;;
80344;SDS011;69658;44.498;0.166;2023-09-30T08:50:25;14.00;;;5.15;;
80344;SDS011;69658;44.498;0.166;2023-09-30T08:55:56;10.80;;;4.10;;
80344;SDS011;69658;44.498;0.166;2023-09-30T09:01:30;12.75;;;4.30;;
80344;SDS011;69658;44.498;0.166;2023-09-30T09:07:02;10.73;;;4.67;;
80344;SDS011;69658;44.498;0.166;2023-09-30T09:12:37;9.70;;;4.43;;
80344;SDS011;69658;44.498;0.166;2023-09-30T09:18:08;8.50;;;4.37;;
80344;SDS011;69658;44.498;0.166;2023-09-30T09:23:42;11.10;;;4.00;;
80344;SDS011;69658;44.498;0.166;2023-09-30T09:29:15;10.15;;;4.10;;
80344;SDS011;69658;44.498;0.166;2023-09-30T09:34:59;7.20;;;3.65;;
80344;SDS011;69658;44.498;0.166;2023-09-30T09:40:22;6.25;;;3.00;;
80344;SDS011;69658;44.498;0.166;2023-09-30T09:45:53;9.05;;;3.70;;
80344;SDS011;69658;44.498;0.166;2023-09-30T09:51:24;5.50;;;3.20;;
80344;SDS011;69658;44.498;0.166;2023-09-30T09:56:57;7.05;;;3.35;;
80344;SDS011;69658;44.498;0.166;2023-09-30T10:02:32;5.20;;;2.75;;
80344;SDS011;69658;44.498;0.166;2023-09-30T10:08:05;5.60;;;3.00;;
80344;SDS011;69658;44.498;0.166;2023-09-30T10:19:09;7.00;;;3.25;;
80344;SDS011;69658;44.498;0.166;2023-09-30T10:30:14;6.65;;;2.40;;
80344;SDS011;69658;44.498;0.166;2023-09-30T10:35:47;5.30;;;2.50;;
80344;SDS011;69658;44.498;0.166;2023-09-30T10:46:52;8.23;;;2.07;;
80344;SDS011;69658;44.498;0.166;2023-09-30T10:52:23;5.30;;;1.83;;
80344;SDS011;69658;44.498;0.166;2023-09-30T10:57:57;2.67;;;1.37;;
80344;SDS011;69658;44.498;0.166;2023-09-30T11:03:31;3.33;;;1.37;;
80344;SDS011;69658;44.498;0.166;2023-09-30T11:09:03;2.33;;;1.20;;
80344;SDS011;69658;44.498;0.166;2023-09-30T11:14:36;3.27;;;1.63;;
80344;SDS011;69658;44.498;0.166;2023-09-30T11:20:07;3.63;;;1.37;;
80344;SDS011;69658;44.498;0.166;2023-09-30T11:25:41;4.93;;;1.73;;
80344;SDS011;69658;44.498;0.166;2023-09-30T11:31:12;5.80;;;1.90;;
80344;SDS011;69658;44.498;0.166;2023-09-30T11:36:47;5.00;;;1.63;;
80344;SDS011;69658;44.498;0.166;2023-09-30T11:42:17;6.30;;;1.67;;
80344;SDS011;69658;44.498;0.166;2023-09-30T11:47:48;4.00;;;1.30;;
80344;SDS011;69658;44.498;0.166;2023-09-30T11:53:21;2.90;;;1.53;;
80344;SDS011;69658;44.498;0.166;2023-09-30T11:58:52;3.27;;;1.43;;
80344;SDS011;69658;44.498;0.166;2023-09-30T12:04:25;2.27;;;1.10;;
80344;SDS011;69658;44.498;0.166;2023-09-30T12:09:58;2.87;;;1.20;;
80344;SDS011;69658;44.498;0.166;2023-09-30T12:15:31;3.23;;;1.03;;
80344;SDS011;69658;44.498;0.166;2023-09-30T12:21:06;2.10;;;1.00;;
80344;SDS011;69658;44.498;0.166;2023-09-30T12:32:11;2.60;;;1.00;;
80344;SDS011;69658;44.498;0.166;2023-09-30T12:43:18;3.10;;;1.17;;
80344;SDS011;69658;44.498;0.166;2023-09-30T12:48:50;3.33;;;1.20;;
80344;SDS011;69658;44.498;0.166;2023-09-30T12:54:24;2.13;;;1.00;;
80344;SDS011;69658;44.498;0.166;2023-09-30T12:59:57;1.63;;;0.83;;
80344;SDS011;69658;44.498;0.166;2023-09-30T13:05:31;2.63;;;1.07;;
80344;SDS011;69658;44.498;0.166;2023-09-30T13:11:02;5.20;;;0.93;;
80344;SDS011;69658;44.498;0.166;2023-09-30T13:16:34;3.83;;;1.40;;
80344;SDS011;69658;44.498;0.166;2023-09-30T13:22:07;3.20;;;1.50;;
80344;SDS011;69658;44.498;0.166;2023-09-30T13:27:40;2.97;;;0.80;;
80344;SDS011;69658;44.498;0.166;2023-09-30T13:33:12;3.17;;;1.13;;
80344;SDS011;69658;44.498;0.166;2023-09-30T13:38:46;2.60;;;1.20;;
80344;SDS011;69658;44.498;0.166;2023-09-30T13:44:18;1.83;;;0.87;;
80344;SDS011;69658;44.498;0.166;2023-09-30T13:49:50;3.10;;;1.23;;
80344;SDS011;69658;44.498;0.166;2023-09-30T13:55:22;3.57;;;0.93;;
80344;SDS011;69658;44.498;0.166;2023-09-30T14:00:56;3.20;;;0.97;;
80344;SDS011;69658;44.498;0.166;2023-09-30T14:06:30;2.20;;;0.80;;
80344;SDS011;69658;44.498;0.166;2023-09-30T14:12:04;2.53;;;1.27;;
80344;SDS011;69658;44.498;0.166;2023-09-30T14:17:35;2.63;;;0.80;;
80344;SDS011;69658;44.498;0.166;2023-09-30T14:23:08;3.73;;;1.00;;
80344;SDS011;69658;44.498;0.166;2023-09-30T14:28:40;1.63;;;0.90;;
80344;SDS011;69658;44.498;0.166;2023-09-30T14:34:12;2.80;;;1.00;;
80344;SDS011;69658;44.498;0.166;2023-09-30T14:39:46;2.83;;;1.13;;
80344;SDS011;69658;44.498;0.166;2023-09-30T14:45:18;1.87;;;0.90;;
80344;SDS011;69658;44.498;0.166;2023-09-30T14:50:50;1.77;;;0.90;;
80344;SDS011;69658;44.498;0.166;2023-09-30T14:56:23;2.77;;;1.00;;
80344;SDS011;69658;44.498;0.166;2023-09-30T15:01:57;5.90;;;0.70;;
80344;SDS011;69658;44.498;0.166;2023-09-30T15:07:30;2.30;;;0.70;;
80344;SDS011;69658;44.498;0.166;2023-09-30T15:13:05;2.77;;;1.03;;
80344;SDS011;69658;44.498;0.166;2023-09-30T15:18:36;2.43;;;0.80;;
80344;SDS011;69658;44.498;0.166;2023-09-30T15:24:11;2.73;;;0.97;;
80344;SDS011;69658;44.498;0.166;2023-09-30T15:29:42;2.20;;;1.17;;
80344;SDS011;69658;44.498;0.166;2023-09-30T15:35:14;0.83;;;0.73;;
80344;SDS011;69658;44.498;0.166;2023-09-30T15:40:50;2.13;;;0.60;;
80344;SDS011;69658;44.498;0.166;2023-09-30T15:46:19;1.30;;;0.60;;
80344;SDS011;69658;44.498;0.166;2023-09-30T15:51:51;1.97;;;0.77;;
80344;SDS011;69658;44.498;0.166;2023-09-30T15:57:23;4.17;;;1.17;;
80344;SDS011;69658;44.498;0.166;2023-09-30T16:02:55;1.47;;;0.80;;
80344;SDS011;69658;44.498;0.166;2023-09-30T16:08:29;4.00;;;1.20;;
80344;SDS011;69658;44.498;0.166;2023-09-30T16:14:04;1.27;;;0.63;;
80344;SDS011;69658;44.498;0.166;2023-09-30T16:19:34;2.53;;;1.00;;
80344;SDS011;69658;44.498;0.166;2023-09-30T16:30:40;1.47;;;0.83;;
80344;SDS011;69658;44.498;0.166;2023-09-30T16:36:15;4.07;;;0.90;;
80344;SDS011;69658;44.498;0.166;2023-09-30T16:41:46;2.20;;;0.90;;
80344;SDS011;69658;44.498;0.166;2023-09-30T16:47:19;1.17;;;0.63;;
80344;SDS011;69658;44.498;0.166;2023-09-30T16:52:53;2.90;;;0.97;;
80344;SDS011;69658;44.498;0.166;2023-09-30T16:58:26;1.50;;;0.80;;
80344;SDS011;69658;44.498;0.166;2023-09-30T17:03:59;2.60;;;0.97;;
80344;SDS011;69658;44.498;0.166;2023-09-30T17:09:32;2.87;;;0.90;;
80344;SDS011;69658;44.498;0.166;2023-09-30T17:15:05;2.37;;;1.23;;
80344;SDS011;69658;44.498;0.166;2023-09-30T17:20:40;2.00;;;0.80;;
80344;SDS011;69658;44.498;0.166;2023-09-30T17:26:10;1.43;;;0.73;;
80344;SDS011;69658;44.498;0.166;2023-09-30T17:31:42;1.53;;;0.63;;
80344;SDS011;69658;44.498;0.166;2023-09-30T17:37:18;1.80;;;0.70;;
80344;SDS011;69658;44.498;0.166;2023-09-30T17:42:48;1.00;;;0.50;;
80344;SDS011;69658;44.498;0.166;2023-09-30T17:48:22;1.40;;;0.90;;
80344;SDS011;69658;44.498;0.166;2023-09-30T17:53:55;2.23;;;0.70;;
80344;SDS011;69658;44.498;0.166;2023-09-30T17:59:27;2.47;;;0.50;;
80344;SDS011;69658;44.498;0.166;2023-09-30T18:04:59;1.23;;;0.60;;
80344;SDS011;69658;44.498;0.166;2023-09-30T18:10:32;3.30;;;0.80;;
80344;SDS011;69658;44.498;0.166;2023-09-30T18:16:05;1.70;;;0.53;;
80344;SDS011;69658;44.498;0.166;2023-09-30T18:21:37;5.27;;;0.70;;
80344;SDS011;69658;44.498;0.166;2023-09-30T18:27:09;1.53;;;0.60;;
80344;SDS011;69658;44.498;0.166;2023-09-30T18:32:41;2.77;;;0.83;;
80344;SDS011;69658;44.498;0.166;2023-09-30T18:38:14;2.87;;;0.80;;
80344;SDS011;69658;44.498;0.166;2023-09-30T18:43:46;1.10;;;0.70;;
80344;SDS011;69658;44.498;0.166;2023-09-30T18:49:19;1.80;;;0.80;;
80344;SDS011;69658;44.498;0.166;2023-09-30T18:54:51;1.33;;;0.70;;
80344;SDS011;69658;44.498;0.166;2023-09-30T19:00:23;4.53;;;1.00;;
80344;SDS011;69658;44.498;0.166;2023-09-30T19:05:55;3.03;;;0.83;;
80344;SDS011;69658;44.498;0.166;2023-09-30T19:11:26;3.20;;;1.00;;
80344;SDS011;69658;44.498;0.166;2023-09-30T19:17:00;2.47;;;0.97;;
80344;SDS011;69658;44.498;0.166;2023-09-30T19:22:33;2.83;;;0.83;;
80344;SDS011;69658;44.498;0.166;2023-09-30T19:28:05;1.47;;;0.90;;
80344;SDS011;69658;44.498;0.166;2023-09-30T19:39:09;1.27;;;0.50;;
80344;SDS011;69658;44.498;0.166;2023-09-30T19:44:45;2.23;;;0.73;;
80344;SDS011;69658;44.498;0.166;2023-09-30T19:50:14;1.83;;;0.60;;
80344;SDS011;69658;44.498;0.166;2023-09-30T19:55:48;2.83;;;1.27;;
80344;SDS011;69658;44.498;0.166;2023-09-30T20:01:19;2.23;;;0.97;;
80344;SDS011;69658;44.498;0.166;2023-09-30T20:06:54;3.20;;;1.13;;
80344;SDS011;69658;44.498;0.166;2023-09-30T20:12:26;5.40;;;0.73;;
80344;SDS011;69658;44.498;0.166;2023-09-30T20:17:58;5.27;;;1.17;;
80344;SDS011;69658;44.498;0.166;2023-09-30T20:23:32;5.43;;;0.97;;
80344;SDS011;69658;44.498;0.166;2023-09-30T20:29:04;5.33;;;1.53;;
80344;SDS011;69658;44.498;0.166;2023-09-30T20:34:39;3.67;;;0.97;;
80344;SDS011;69658;44.498;0.166;2023-09-30T20:40:14;2.83;;;1.20;;
80344;SDS011;69658;44.498;0.166;2023-09-30T20:45:44;3.87;;;0.90;;
80344;SDS011;69658;44.498;0.166;2023-09-30T20:51:17;1.73;;;0.77;;
80344;SDS011;69658;44.498;0.166;2023-09-30T20:56:52;2.70;;;0.93;;
80344;SDS011;69658;44.498;0.166;2023-09-30T21:02:23;2.73;;;1.17;;
80344;SDS011;69658;44.498;0.166;2023-09-30T21:07:54;3.00;;;1.13;;
80344;SDS011;69658;44.498;0.166;2023-09-30T21:13:27;4.57;;;1.50;;
80344;SDS011;69658;44.498;0.166;2023-09-30T21:19:00;6.57;;;1.63;;
80344;SDS011;69658;44.498;0.166;2023-09-30T21:24:33;2.17;;;0.90;;
80344;SDS011;69658;44.498;0.166;2023-09-30T21:30:07;3.57;;;1.50;;
80344;SDS011;69658;44.498;0.166;2023-09-30T21:35:39;4.13;;;1.57;;
80344;SDS011;69658;44.498;0.166;2023-09-30T21:41:13;3.47;;;1.27;;
80344;SDS011;69658;44.498;0.166;2023-09-30T21:46:45;3.27;;;1.03;;
80344;SDS011;69658;44.498;0.166;2023-09-30T21:52:17;2.53;;;1.20;;
80344;SDS011;69658;44.498;0.166;2023-09-30T21:57:50;3.03;;;1.00;;
80344;SDS011;69658;44.498;0.166;2023-09-30T22:03:24;1.53;;;1.00;;
80344;SDS011;69658;44.498;0.166;2023-09-30T22:08:55;3.50;;;1.00;;
80344;SDS011;69658;44.498;0.166;2023-09-30T22:14:27;1.63;;;0.80;;
80344;SDS011;69658;44.498;0.166;2023-09-30T22:20:01;2.77;;;1.40;;
80344;SDS011;69658;44.498;0.166;2023-09-30T22:25:34;3.17;;;1.10;;
80344;SDS011;69658;44.498;0.166;2023-09-30T22:31:07;2.27;;;1.10;;
80344;SDS011;69658;44.498;0.166;2023-09-30T22:36:39;5.03;;;1.20;;
80344;SDS011;69658;44.498;0.166;2023-09-30T22:42:12;3.83;;;1.50;;
80344;SDS011;69658;44.498;0.166;2023-09-30T22:47:45;2.70;;;1.27;;
80344;SDS011;69658;44.498;0.166;2023-09-30T22:53:18;3.63;;;1.23;;
80344;SDS011;69658;44.498;0.166;2023-09-30T22:58:50;2.50;;;0.97;;
80344;SDS011;69658;44.498;0.166;2023-09-30T23:04:23;1.83;;;0.63;;
80344;SDS011;69658;44.498;0.166;2023-09-30T23:09:55;3.17;;;0.60;;
80344;SDS011;69658;44.498;0.166;2023-09-30T23:15:28;2.33;;;0.80;;
80344;SDS011;69658;44.498;0.166;2023-09-30T23:21:01;5.63;;;0.83;;
80344;SDS011;69658;44.498;0.166;2023-09-30T23:26:34;5.67;;;1.00;;
80344;SDS011;69658;44.498;0.166;2023-09-30T23:32:07;4.10;;;1.10;;
80344;SDS011;69658;44.498;0.166;2023-09-30T23:37:40;1.90;;;0.90;;
80344;SDS011;69658;44.498;0.166;2023-09-30T23:43:12;2.80;;;0.80;;
80344;SDS011;69658;44.498;0.166;2023-09-30T23:48:44;2.37;;;0.70;;
80344;SDS011;69658;44.498;0.166;2023-09-30T23:54:20;2.80;;;0.80;;
80344;SDS011;69658;44.498;0.166;2023-09-30T23:59:50;3.87;;;0.90;;
